sensor_id;sensor_type;location;lat;lon;timestamp;temperature;humidity
14154;DHT22;7157;53.144;7.570;2023-04-08T00:01:03;6.54;83.68
14154;DHT22;7157;53.144;7.570;2023-04-08T00:11:05;6.40;84.87
14154;DHT22;7157;53.144;7.570;2023-04-08T00:21:09;6.19;84.66
14154;DHT22;7157;53.144;7.570;2023-04-08T00:31:14;6.02;84.62
14154;DHT22;7157;53.144;7.570;2023-04-08T00:41:18;5.96;85.26
14154;DHT22;7157;53.144;7.570;2023-04-08T00:51:20;6.08;86.64
14154;DHT22;7157;53.144;7.570;2023-04-08T01:01:32;6.15;87.57
14154;DHT22;7157;53.144;7.570;2023-04-08T01:11:37;6.20;86.21
14154;DHT22;7157;53.144;7.570;2023-04-08T01:21:43;6.21;86.67
14154;DHT22;7157;53.144;7.570;2023-04-08T01:31:48;6.25;87.25
14154;DHT22;7157;53.144;7.570;2023-04-08T01:41:52;6.33;87.46
14154;DHT22;7157;53.144;7.570;2023-04-08T01:51:57;6.29;87.72
14154;DHT22;7157;53.144;7.570;2023-04-08T02:02:04;6.17;89.21
14154;DHT22;7157;53.144;7.570;2023-04-08T02:12:10;6.30;88.02
14154;DHT22;7157;53.144;7.570;2023-04-08T02:22:17;6.41;88.56
14154;DHT22;7157;53.144;7.570;2023-04-08T02:32:22;6.45;89.00
14154;DHT22;7157;53.144;7.570;2023-04-08T02:42:26;6.55;89.32
14154;DHT22;7157;53.144;7.570;2023-04-08T02:52:30;6.72;89.21
14154;DHT22;7157;53.144;7.570;2023-04-08T03:02:33;6.73;90.37
14154;DHT22;7157;53.144;7.570;2023-04-08T03:12:38;6.75;90.77
14154;DHT22;7157;53.144;7.570;2023-04-08T03:22:41;6.88;90.71
14154;DHT22;7157;53.144;7.570;2023-04-08T03:32:45;7.07;90.17
14154;DHT22;7157;53.144;7.570;2023-04-08T03:42:48;7.17;90.38
14154;DHT22;7157;53.144;7.570;2023-04-08T03:52:52;7.31;89.84
14154;DHT22;7157;53.144;7.570;2023-04-08T04:02:54;7.29;90.02
14154;DHT22;7157;53.144;7.570;2023-04-08T04:12:58;7.22;89.79
14154;DHT22;7157;53.144;7.570;2023-04-08T04:23:01;7.17;90.34
14154;DHT22;7157;53.144;7.570;2023-04-08T04:33:05;7.15;90.79
14154;DHT22;7157;53.144;7.570;2023-04-08T04:43:08;7.27;89.60
14154;DHT22;7157;53.144;7.570;2023-04-08T04:53:13;7.20;90.11
14154;DHT22;7157;53.144;7.570;2023-04-08T05:03:15;7.31;89.91
14154;DHT22;7157;53.144;7.570;2023-04-08T05:13:26;7.39;89.70
14154;DHT22;7157;53.144;7.570;2023-04-08T05:23:29;7.56;89.21
14154;DHT22;7157;53.144;7.570;2023-04-08T05:33:33;7.64;88.93
14154;DHT22;7157;53.144;7.570;2023-04-08T05:43:36;7.85;88.64
14154;DHT22;7157;53.144;7.570;2023-04-08T05:53:40;7.76;88.66
14154;DHT22;7157;53.144;7.570;2023-04-08T06:03:42;7.86;88.78
14154;DHT22;7157;53.144;7.570;2023-04-08T06:13:47;7.85;88.86
14154;DHT22;7157;53.144;7.570;2023-04-08T06:23:49;7.87;88.85
14154;DHT22;7157;53.144;7.570;2023-04-08T06:33:53;7.91;88.62
14154;DHT22;7157;53.144;7.570;2023-04-08T06:43:56;7.94;89.50
14154;DHT22;7157;53.144;7.570;2023-04-08T06:54:00;8.48;88.06
14154;DHT22;7157;53.144;7.570;2023-04-08T07:04:03;8.56;87.93
14154;DHT22;7157;53.144;7.570;2023-04-08T07:14:07;8.89;87.56
14154;DHT22;7157;53.144;7.570;2023-04-08T07:24:09;8.92;87.15
14154;DHT22;7157;53.144;7.570;2023-04-08T07:34:13;8.76;87.71
14154;DHT22;7157;53.144;7.570;2023-04-08T07:44:17;8.90;87.48
14154;DHT22;7157;53.144;7.570;2023-04-08T07:54:21;9.11;87.48
14154;DHT22;7157;53.144;7.570;2023-04-08T08:04:24;9.14;87.17
14154;DHT22;7157;53.144;7.570;2023-04-08T08:14:28;9.33;87.09
14154;DHT22;7157;53.144;7.570;2023-04-08T08:24:31;9.46;87.01
14154;DHT22;7157;53.144;7.570;2023-04-08T08:34:35;10.03;85.29
14154;DHT22;7157;53.144;7.570;2023-04-08T08:44:38;10.18;85.81
14154;DHT22;7157;53.144;7.570;2023-04-08T08:54:43;10.00;85.64
14154;DHT22;7157;53.144;7.570;2023-04-08T09:04:55;10.62;84.43
14154;DHT22;7157;53.144;7.570;2023-04-08T09:15:07;10.59;83.84
14154;DHT22;7157;53.144;7.570;2023-04-08T09:25:22;10.80;83.89
14154;DHT22;7157;53.144;7.570;2023-04-08T09:35:26;11.23;82.73
14154;DHT22;7157;53.144;7.570;2023-04-08T09:45:29;11.52;81.30
14154;DHT22;7157;53.144;7.570;2023-04-08T09:55:36;11.62;80.50
14154;DHT22;7157;53.144;7.570;2023-04-08T10:05:40;11.79;80.50
14154;DHT22;7157;53.144;7.570;2023-04-08T10:15:44;11.90;79.66
14154;DHT22;7157;53.144;7.570;2023-04-08T10:25:48;11.69;79.47
14154;DHT22;7157;53.144;7.570;2023-04-08T10:36:00;11.45;80.52
14154;DHT22;7157;53.144;7.570;2023-04-08T10:46:10;11.74;80.20
14154;DHT22;7157;53.144;7.570;2023-04-08T10:56:14;12.17;77.51
14154;DHT22;7157;53.144;7.570;2023-04-08T11:06:18;12.12;77.25
14154;DHT22;7157;53.144;7.570;2023-04-08T11:16:22;12.36;77.27
14154;DHT22;7157;53.144;7.570;2023-04-08T11:26:26;12.81;75.92
14154;DHT22;7157;53.144;7.570;2023-04-08T11:36:30;12.36;76.64
14154;DHT22;7157;53.144;7.570;2023-04-08T11:46:35;12.79;75.73
14154;DHT22;7157;53.144;7.570;2023-04-08T11:56:45;12.99;74.28
14154;DHT22;7157;53.144;7.570;2023-04-08T12:06:48;13.01;73.84
14154;DHT22;7157;53.144;7.570;2023-04-08T12:16:52;13.73;72.93
14154;DHT22;7157;53.144;7.570;2023-04-08T12:26:55;14.11;70.65
14154;DHT22;7157;53.144;7.570;2023-04-08T12:36:59;14.14;70.19
14154;DHT22;7157;53.144;7.570;2023-04-08T12:47:02;14.25;69.55
14154;DHT22;7157;53.144;7.570;2023-04-08T12:57:06;14.35;68.86
14154;DHT22;7157;53.144;7.570;2023-04-08T13:07:09;14.36;70.32
14154;DHT22;7157;53.144;7.570;2023-04-08T13:17:13;14.86;68.68
14154;DHT22;7157;53.144;7.570;2023-04-08T13:27:16;15.72;65.22
14154;DHT22;7157;53.144;7.570;2023-04-08T13:37:20;16.76;61.76
14154;DHT22;7157;53.144;7.570;2023-04-08T13:47:23;19.06;55.83
14154;DHT22;7157;53.144;7.570;2023-04-08T13:57:27;17.34;57.46
14154;DHT22;7157;53.144;7.570;2023-04-08T14:07:30;19.53;52.90
14154;DHT22;7157;53.144;7.570;2023-04-08T14:17:34;17.75;54.91
14154;DHT22;7157;53.144;7.570;2023-04-08T14:27:37;18.22;54.98
14154;DHT22;7157;53.144;7.570;2023-04-08T14:37:59;17.92;55.44
14154;DHT22;7157;53.144;7.570;2023-04-08T14:48:02;18.30;55.29
14154;DHT22;7157;53.144;7.570;2023-04-08T14:58:06;17.39;56.53
14154;DHT22;7157;53.144;7.570;2023-04-08T15:08:09;17.24;57.37
14154;DHT22;7157;53.144;7.570;2023-04-08T15:18:13;16.16;60.09
14154;DHT22;7157;53.144;7.570;2023-04-08T15:28:16;15.55;62.65
14154;DHT22;7157;53.144;7.570;2023-04-08T15:38:20;15.96;62.14
14154;DHT22;7157;53.144;7.570;2023-04-08T15:48:22;15.72;62.34
14154;DHT22;7157;53.144;7.570;2023-04-08T15:58:26;15.54;63.92
14154;DHT22;7157;53.144;7.570;2023-04-08T16:08:29;15.15;64.88
14154;DHT22;7157;53.144;7.570;2023-04-08T16:18:35;15.01;65.38
14154;DHT22;7157;53.144;7.570;2023-04-08T16:28:38;14.81;66.43
14154;DHT22;7157;53.144;7.570;2023-04-08T16:38:42;14.29;68.15
14154;DHT22;7157;53.144;7.570;2023-04-08T16:48:45;13.98;69.23
14154;DHT22;7157;53.144;7.570;2023-04-08T16:58:50;13.63;70.70
14154;DHT22;7157;53.144;7.570;2023-04-08T17:08:52;13.55;71.25
14154;DHT22;7157;53.144;7.570;2023-04-08T17:18:57;13.36;72.39
14154;DHT22;7157;53.144;7.570;2023-04-08T17:28:59;13.34;72.43
14154;DHT22;7157;53.144;7.570;2023-04-08T17:39:03;13.17;73.12
14154;DHT22;7157;53.144;7.570;2023-04-08T17:49:06;13.00;74.16
14154;DHT22;7157;53.144;7.570;2023-04-08T17:59:12;12.70;75.50
14154;DHT22;7157;53.144;7.570;2023-04-08T18:09:15;12.74;75.25
14154;DHT22;7157;53.144;7.570;2023-04-08T18:19:20;12.62;76.15
14154;DHT22;7157;53.144;7.570;2023-04-08T18:29:23;12.56;76.24
14154;DHT22;7157;53.144;7.570;2023-04-08T18:39:27;12.44;76.70
14154;DHT22;7157;53.144;7.570;2023-04-08T18:49:29;12.22;77.48
14154;DHT22;7157;53.144;7.570;2023-04-08T18:59:36;12.19;77.70
14154;DHT22;7157;53.144;7.570;2023-04-08T19:09:38;11.99;78.67
14154;DHT22;7157;53.144;7.570;2023-04-08T19:19:42;11.82;79.60
14154;DHT22;7157;53.144;7.570;2023-04-08T19:29:45;11.64;80.49
14154;DHT22;7157;53.144;7.570;2023-04-08T19:39:49;11.55;80.89
14154;DHT22;7157;53.144;7.570;2023-04-08T19:49:52;11.43;81.44
14154;DHT22;7157;53.144;7.570;2023-04-08T19:59:56;11.24;82.44
14154;DHT22;7157;53.144;7.570;2023-04-08T20:09:58;11.22;82.25
14154;DHT22;7157;53.144;7.570;2023-04-08T20:20:03;11.19;82.21
14154;DHT22;7157;53.144;7.570;2023-04-08T20:30:07;10.97;83.75
14154;DHT22;7157;53.144;7.570;2023-04-08T20:40:12;11.01;83.10
14154;DHT22;7157;53.144;7.570;2023-04-08T20:50:18;10.87;83.71
14154;DHT22;7157;53.144;7.570;2023-04-08T21:00:22;10.83;84.07
14154;DHT22;7157;53.144;7.570;2023-04-08T21:10:25;10.86;83.62
14154;DHT22;7157;53.144;7.570;2023-04-08T21:20:29;10.87;83.62
14154;DHT22;7157;53.144;7.570;2023-04-08T21:30:32;10.71;84.19
14154;DHT22;7157;53.144;7.570;2023-04-08T21:40:36;10.80;83.70
14154;DHT22;7157;53.144;7.570;2023-04-08T21:50:39;10.66;84.32
14154;DHT22;7157;53.144;7.570;2023-04-08T22:00:43;10.51;85.18
14154;DHT22;7157;53.144;7.570;2023-04-08T22:10:46;10.56;85.11
14154;DHT22;7157;53.144;7.570;2023-04-08T22:20:50;10.64;84.51
14154;DHT22;7157;53.144;7.570;2023-04-08T22:30:53;10.64;84.79
14154;DHT22;7157;53.144;7.570;2023-04-08T22:40:57;10.55;84.81
14154;DHT22;7157;53.144;7.570;2023-04-08T22:51:00;10.53;85.35
14154;DHT22;7157;53.144;7.570;2023-04-08T23:01:12;10.60;84.90
14154;DHT22;7157;53.144;7.570;2023-04-08T23:11:17;10.63;85.16
14154;DHT22;7157;53.144;7.570;2023-04-08T23:21:21;10.56;85.61
14154;DHT22;7157;53.144;7.570;2023-04-08T23:31:24;10.57;85.50
14154;DHT22;7157;53.144;7.570;2023-04-08T23:41:28;10.54;85.64
14154;DHT22;7157;53.144;7.570;2023-04-08T23:51:31;10.57;85.57
